Time;durP1;ratioP1;P1;durP2;ratioP2;P2;SDS_P1;SDS_P2;PMS_P1;PMS_P2;Temp;Humidity;BMP_temperature;BMP_pressure;BME280_temperature;BME280_humidity;BME280_pressure;Samples;Min_cycle;Max_cycle;Signal;HPM_P1;HPM_P2
2021/07/13 00:00:20;;;;;;;16.50;12.88;;;;;;;18.44;98.14;98335.06;5103356;28;20210;-66
2021/07/13 00:02:46;;;;;;;;;;;;;;;18.43;98.13;98332.50;5102386;28;20031;-66
2021/07/13 00:05:14;;;;;;;16.23;12.68;;;;;;;18.42;97.92;98328.13;5093929;28;19975;-66
2021/07/13 00:07:41;;;;;;;18.08;13.82;;;;;;;18.41;98.00;98332.56;5085143;28;20316;-66
2021/07/13 00:10:08;;;;;;;22.75;14.85;;;;;;;18.42;97.81;98333.44;5085046;28;20013;-66
2021/07/13 00:12:34;;;;;;;17.55;12.45;;;;;;;18.44;97.72;98328.88;5091046;28;20020;-66
2021/07/13 00:15:00;;;;;;;20.02;14.40;;;;;;;18.43;97.66;98327.16;5087365;28;20058;-66
2021/07/13 00:17:25;;;;;;;17.70;14.13;;;;;;;18.42;97.94;98322.78;5085955;28;20048;-66
2021/07/13 00:19:50;;;;;;;16.77;12.70;;;;;;;18.38;97.51;98315.91;5086022;28;20055;-66
2021/07/13 00:22:16;;;;;;;19.70;11.82;;;;;;;18.38;97.54;98321.25;5093664;28;20039;-66
2021/07/13 00:24:42;;;;;;;21.30;14.23;;;;;;;18.34;97.68;98316.97;5084864;28;20020;-66
2021/07/13 00:27:07;;;;;;;16.90;13.93;;;;;;;18.32;97.73;98313.56;5100129;28;20311;-66
2021/07/13 00:29:33;;;;;;;18.08;13.55;;;;;;;18.31;97.83;98311.81;5104614;28;20331;-66
2021/07/13 00:31:58;;;;;;;19.33;12.98;;;;;;;18.31;97.77;98327.78;5099691;28;20012;-66
2021/07/13 00:34:23;;;;;;;13.77;12.07;;;;;;;18.33;97.79;98334.78;5087248;28;20012;-66
2021/07/13 00:36:49;;;;;;;17.52;12.75;;;;;;;18.34;97.67;98340.94;5084623;28;20051;-66
2021/07/13 00:39:14;;;;;;;17.92;13.15;;;;;;;18.33;97.78;98337.44;5084517;28;20062;-66
2021/07/13 00:41:40;;;;;;;17.42;13.25;;;;;;;18.34;97.77;98339.16;5088194;28;20012;-66
2021/07/13 00:44:05;;;;;;;16.55;14.43;;;;;;;18.35;97.84;98334.69;5102826;28;20256;-66
2021/07/13 00:46:44;;;;;;;20.85;13.30;;;;;;;18.29;97.73;98313.72;5104006;28;20032;-66
2021/07/13 00:49:10;;;;;;;17.75;13.73;;;;;;;18.31;97.46;98317.13;5104207;28;20016;-66
2021/07/13 00:51:36;;;;;;;17.88;12.45;;;;;;;18.30;97.17;98326.09;5096050;28;20056;-66
2021/07/13 00:54:01;;;;;;;19.02;12.15;;;;;;;18.31;96.97;98322.47;5104145;28;20019;-66
2021/07/13 00:56:28;;;;;;;15.05;12.20;;;;;;;18.30;96.64;98321.63;5099087;28;20030;-66
2021/07/13 00:58:53;;;;;;;15.05;12.20;;;;;;;18.25;96.90;98313.00;5089875;28;20028;-66
2021/07/13 01:01:19;;;;;;;17.92;12.25;;;;;;;18.23;96.88;98314.06;5084213;28;20020;-66
2021/07/13 01:03:45;;;;;;;15.02;13.43;;;;;;;18.20;96.93;98316.88;5101796;28;20357;-66
2021/07/13 01:06:13;;;;;;;15.20;11.85;;;;;;;18.16;96.90;98307.34;5091307;28;20025;-66
2021/07/13 01:08:59;;;;;;;18.40;13.07;;;;;;;18.14;96.94;98298.56;5099973;28;20037;-66
2021/07/13 01:11:34;;;;;;;16.17;12.10;;;;;;;18.09;97.08;98292.63;5104358;28;20242;-66
2021/07/13 01:14:08;;;;;;;17.92;12.43;;;;;;;18.07;97.12;98286.53;5104327;28;20046;-66
2021/07/13 01:17:06;;;;;;;15.10;11.90;;;;;;;18.04;97.41;98298.22;5104345;28;20016;-66
2021/07/13 01:19:35;;;;;;;21.67;12.43;;;;;;;18.08;97.54;98314.88;5102057;28;20392;-66
2021/07/13 01:22:02;;;;;;;17.42;12.93;;;;;;;18.05;97.48;98309.72;5104192;28;20027;-66
2021/07/13 01:24:53;;;;;;;16.73;11.60;;;;;;;18.04;97.69;98316.00;5104224;28;20026;-66
2021/07/13 01:27:49;;;;;;;15.20;11.23;;;;;;;18.03;97.77;98348.91;5103210;28;20312;-66
2021/07/13 01:30:19;;;;;;;15.55;12.18;;;;;;;17.99;97.68;98315.38;5103896;28;20083;-66
2021/07/13 01:32:53;;;;;;;15.30;12.93;;;;;;;18.00;97.80;98303.81;5104080;28;20028;-66
2021/07/13 01:35:24;;;;;;;15.63;11.18;;;;;;;18.00;97.85;98303.81;5104087;28;20311;-66
2021/07/13 01:37:52;;;;;;;19.15;13.02;;;;;;;18.00;97.90;98307.31;5100570;28;20027;-66
2021/07/13 01:40:19;;;;;;;17.63;11.30;;;;;;;18.03;97.98;98300.97;5103441;28;20024;-66
2021/07/13 01:42:45;;;;;;;13.77;11.75;;;;;;;18.03;97.88;98308.97;5103224;28;20021;-66
2021/07/13 01:45:11;;;;;;;15.10;9.68;;;;;;;18.03;97.75;98308.97;5103408;28;20039;-66
2021/07/13 01:47:38;;;;;;;16.83;11.80;;;;;;;18.03;97.76;98311.63;5088810;28;20067;-66
2021/07/13 01:50:08;;;;;;;15.90;12.20;;;;;;;18.01;97.80;98308.16;5084910;28;20207;-66
2021/07/13 01:52:36;;;;;;;15.73;10.98;;;;;;;18.01;97.79;98297.53;5087014;28;20226;-66
2021/07/13 01:55:04;;;;;;;20.38;12.48;;;;;;;17.98;97.80;98292.34;5103607;28;20024;-66
2021/07/13 01:57:32;;;;;;;17.40;12.15;;;;;;;17.95;97.81;98292.53;5103850;28;20024;-66
2021/07/13 01:59:59;;;;;;;18.00;12.73;;;;;;;17.95;97.66;98293.41;5103777;28;20193;-66
2021/07/13 02:02:27;;;;;;;13.52;11.63;;;;;;;17.93;97.54;98294.41;5103811;28;20069;-66
2021/07/13 02:04:55;;;;;;;17.52;11.95;;;;;;;17.90;97.58;98289.22;5103532;28;20040;-66
2021/07/13 02:07:22;;;;;;;12.98;11.40;;;;;;;17.97;97.72;98285.31;5103776;28;20019;-66
2021/07/13 02:09:48;;;;;;;20.70;13.18;;;;;;;17.93;97.48;98278.41;5102171;28;20330;-66
2021/07/13 02:12:13;;;;;;;18.42;12.82;;;;;;;17.90;97.86;98276.78;5087852;28;20020;-66
2021/07/13 02:14:39;;;;;;;15.23;12.50;;;;;;;17.83;97.90;98277.19;5084682;28;20154;-66
2021/07/13 02:17:05;;;;;;;16.92;12.32;;;;;;;17.88;97.94;98269.84;5083501;28;20024;-66
2021/07/13 02:19:31;;;;;;;18.83;12.63;;;;;;;17.89;98.48;98271.56;5083411;28;20043;-66
2021/07/13 02:21:56;;;;;;;18.48;12.95;;;;;;;17.88;98.34;98280.50;5084341;28;20411;-66
2021/07/13 02:24:23;;;;;;;18.70;13.65;;;;;;;17.85;97.95;98270.00;5083591;28;20016;-66
2021/07/13 02:26:56;;;;;;;17.17;12.60;;;;;;;17.86;98.16;98275.25;5083393;28;20219;-66
2021/07/13 02:29:39;;;;;;;18.17;13.43;;;;;;;17.89;97.97;98277.75;5091474;28;20012;-66
2021/07/13 02:32:25;;;;;;;14.95;11.75;;;;;;;17.87;97.96;98262.81;5083661;28;20028;-66
2021/07/13 02:34:53;;;;;;;16.70;13.68;;;;;;;17.80;97.95;98291.53;5098323;28;20322;-66
2021/07/13 02:37:20;;;;;;;16.02;13.18;;;;;;;17.77;98.14;98289.03;5102723;28;20020;-66
2021/07/13 02:39:46;;;;;;;17.52;10.93;;;;;;;17.81;97.79;98287.09;5098333;28;20024;-66
2021/07/13 02:42:12;;;;;;;15.38;12.63;;;;;;;17.80;97.73;98282.69;5089289;28;20013;-66
2021/07/13 02:44:39;;;;;;;15.15;12.68;;;;;;;17.78;97.91;98279.28;5089139;28;20016;-66
2021/07/13 02:47:07;;;;;;;20.88;13.00;;;;;;;17.76;98.12;98268.69;5086845;28;20312;-66
2021/07/13 02:49:38;;;;;;;16.30;12.35;;;;;;;17.81;98.01;98279.09;5095023;28;20012;-66
2021/07/13 02:52:04;;;;;;;22.23;13.40;;;;;;;17.84;98.00;98284.28;5106290;28;20107;-66
2021/07/13 02:54:30;;;;;;;15.50;12.63;;;;;;;17.85;97.92;98270.88;5105972;28;20016;-66
2021/07/13 02:56:57;;;;;;;15.07;12.15;;;;;;;17.87;97.99;98273.47;5087906;28;20213;-66
2021/07/13 02:59:25;;;;;;;14.93;11.48;;;;;;;17.87;97.60;98276.97;5093268;28;20032;-66
2021/07/13 03:01:51;;;;;;;16.15;10.80;;;;;;;17.87;97.70;98273.47;5096085;28;20020;-66
2021/07/13 03:04:19;;;;;;;17.45;12.35;;;;;;;17.82;97.92;98270.16;5102644;28;20024;-66
2021/07/13 03:06:45;;;;;;;16.30;11.90;;;;;;;17.86;97.83;98277.03;5086664;28;20050;-66
2021/07/13 03:09:12;;;;;;;15.00;12.20;;;;;;;17.82;97.67;98272.81;5096258;28;20023;-66
2021/07/13 03:11:38;;;;;;;16.33;10.57;;;;;;;17.81;97.90;98274.63;5106019;28;20024;-66
2021/07/13 03:14:06;;;;;;;14.98;12.48;;;;;;;17.78;97.64;98263.28;5089497;28;20027;-66
2021/07/13 03:16:32;;;;;;;16.48;11.98;;;;;;;17.79;97.71;98259.69;5101424;28;20031;-66
2021/07/13 03:19:00;;;;;;;14.93;11.25;;;;;;;17.82;97.83;98262.19;5093326;28;20053;-66
2021/07/13 03:21:28;;;;;;;13.40;10.45;;;;;;;17.85;97.76;98254.03;5105567;28;20217;-66
2021/07/13 03:23:59;;;;;;;17.45;12.30;;;;;;;17.84;97.73;98231.84;5105813;28;20024;-66
2021/07/13 03:26:31;;;;;;;15.38;12.30;;;;;;;17.81;97.91;98210.72;5105830;28;20015;-66
2021/07/13 03:29:00;;;;;;;17.63;12.82;;;;;;;17.81;98.36;98241.84;5099149;28;20020;-66
2021/07/13 03:31:26;;;;;;;15.38;12.18;;;;;;;17.81;97.83;98215.22;5085964;28;20025;-66
2021/07/13 03:33:54;;;;;;;18.65;12.55;;;;;;;17.83;97.74;98202.66;5099235;28;20054;-66
2021/07/13 03:36:21;;;;;;;17.02;13.02;;;;;;;17.85;97.96;98201.66;5105303;28;20020;-66
2021/07/13 03:38:46;;;;;;;15.65;13.05;;;;;;;17.86;97.82;98207.81;5100547;28;20315;-66
2021/07/13 03:41:13;;;;;;;17.58;12.73;;;;;;;17.87;97.26;98209.56;5085730;28;20039;-66
2021/07/13 03:43:39;;;;;;;16.35;12.52;;;;;;;17.85;97.05;98222.94;5088799;28;20219;-66
2021/07/13 03:46:04;;;;;;;15.68;11.77;;;;;;;17.88;96.73;98221.91;5105643;28;20046;-66
2021/07/13 03:48:30;;;;;;;15.68;12.30;;;;;;;17.90;96.34;98230.66;5104864;28;20016;-66
2021/07/13 03:50:56;;;;;;;17.48;12.85;;;;;;;17.80;96.14;98224.13;5104109;28;20141;-66
2021/07/13 03:53:21;;;;;;;16.17;12.38;;;;;;;17.79;96.34;98243.72;5105239;28;20315;-66
2021/07/13 03:55:47;;;;;;;16.27;13.27;;;;;;;17.72;96.40;98319.53;5104951;28;20323;-66
2021/07/13 03:58:12;;;;;;;17.88;13.45;;;;;;;17.72;96.27;98311.53;5098078;28;20027;-66
2021/07/13 04:00:38;;;;;;;19.02;13.00;;;;;;;17.69;96.52;98317.03;5085299;28;20031;-66
2021/07/13 04:03:03;;;;;;;16.02;12.07;;;;;;;17.74;96.32;98336.25;5085271;28;20052;-66
2021/07/13 04:05:29;;;;;;;16.42;12.30;;;;;;;17.73;96.02;98361.16;5085576;28;20025;-66
2021/07/13 04:07:55;;;;;;;14.20;11.85;;;;;;;17.66;95.90;98381.06;5096507;28;20026;-66
2021/07/13 04:10:20;;;;;;;18.17;12.20;;;;;;;17.68;96.01;98432.44;5105397;28;20024;-66
2021/07/13 04:12:46;;;;;;;15.77;11.23;;;;;;;17.70;96.11;98425.19;5105354;28;20250;-66
2021/07/13 04:15:13;;;;;;;15.43;10.82;;;;;;;17.75;95.87;98468.44;5105223;28;20293;-66
2021/07/13 04:17:39;;;;;;;15.32;10.73;;;;;;;17.71;96.06;98464.19;5094608;28;20045;-66
2021/07/13 04:20:05;;;;;;;14.63;10.90;;;;;;;17.67;96.06;98465.28;5087675;28;20051;-66
2021/07/13 04:22:31;;;;;;;15.13;12.10;;;;;;;17.64;96.35;98558.59;5084812;28;20026;-66
2021/07/13 04:24:56;;;;;;;18.90;10.75;;;;;;;17.66;96.40;98538.97;5084848;28;20052;-66
2021/07/13 04:27:22;;;;;;;11.73;9.63;;;;;;;17.64;96.41;98545.28;5084755;28;20025;-66
2021/07/13 04:29:47;;;;;;;12.60;9.95;;;;;;;17.63;96.30;98546.25;5084742;28;20343;-66
2021/07/13 04:32:13;;;;;;;12.68;9.73;;;;;;;17.60;96.00;98565.00;5084676;28;20024;-66
2021/07/13 04:34:38;;;;;;;13.93;10.13;;;;;;;17.59;96.24;98560.63;5084635;28;20020;-66
2021/07/13 04:37:04;;;;;;;15.80;10.48;;;;;;;17.59;96.57;98557.97;5084569;28;20024;-66
2021/07/13 04:39:29;;;;;;;12.40;9.50;;;;;;;17.58;96.12;98574.88;5084514;28;20024;-66
2021/07/13 04:41:55;;;;;;;13.43;9.50;;;;;;;17.57;96.44;98573.16;5084419;28;20320;-66
2021/07/13 04:44:20;;;;;;;12.07;8.95;;;;;;;17.55;96.25;98545.72;5084438;28;20028;-66
2021/07/13 04:46:46;;;;;;;14.20;9.50;;;;;;;17.51;96.62;98544.16;5084407;28;20020;-66
2021/07/13 04:49:12;;;;;;;12.95;10.90;;;;;;;17.50;96.78;98577.03;5084369;28;20020;-66
2021/07/13 04:51:38;;;;;;;18.60;11.65;;;;;;;17.49;96.75;98585.97;5084174;28;20036;-66
2021/07/13 04:54:03;;;;;;;15.13;10.68;;;;;;;17.49;97.06;98599.28;5084360;28;20031;-66
2021/07/13 04:56:29;;;;;;;17.85;11.27;;;;;;;17.49;97.03;98604.59;5084530;28;20085;-66
2021/07/13 04:58:54;;;;;;;15.95;11.10;;;;;;;17.47;96.65;98603.81;5084188;28;20024;-66
2021/07/13 05:01:19;;;;;;;13.55;11.35;;;;;;;17.43;96.92;98650.13;5084040;28;20028;-66
2021/07/13 05:03:45;;;;;;;11.68;9.45;;;;;;;17.42;97.09;98606.63;5084207;28;20249;-66
2021/07/13 05:06:10;;;;;;;15.63;10.73;;;;;;;17.36;96.73;98590.09;5084215;28;20115;-66
2021/07/13 05:08:36;;;;;;;11.55;10.15;;;;;;;17.27;97.03;98581.63;5084112;28;20017;-66
2021/07/13 05:11:01;;;;;;;15.10;10.60;;;;;;;17.27;96.96;98570.97;5084129;28;20074;-66
2021/07/13 05:13:26;;;;;;;19.80;9.85;;;;;;;17.18;97.02;98635.25;5084078;28;20024;-66
2021/07/13 05:15:52;;;;;;;17.77;10.98;;;;;;;17.11;97.09;98644.44;5084016;28;20028;-66
2021/07/13 05:18:17;;;;;;;15.15;9.60;;;;;;;17.07;97.12;98637.53;5083953;28;20086;-66
2021/07/13 05:20:46;;;;;;;12.95;10.13;;;;;;;17.11;96.95;98681.66;5084008;28;20249;-66
2021/07/13 05:23:12;;;;;;;9.73;8.48;;;;;;;17.13;97.05;98703.75;5084004;28;20044;-66
2021/07/13 05:25:40;;;;;;;12.43;8.30;;;;;;;17.13;96.98;98719.72;5083975;28;20254;-66
2021/07/13 05:28:10;;;;;;;9.25;8.00;;;;;;;17.15;96.92;98722.31;5083914;28;20020;-66
2021/07/13 05:30:40;;;;;;;13.70;8.23;;;;;;;17.14;96.98;98729.41;5083909;28;20091;-66
2021/07/13 05:33:07;;;;;;;16.00;8.65;;;;;;;17.13;97.15;98791.53;5083987;28;20310;-66
2021/07/13 05:35:32;;;;;;;12.30;8.50;;;;;;;17.15;96.98;98794.97;5083905;28;20043;-66
2021/07/13 05:37:58;;;;;;;9.15;7.80;;;;;;;17.19;96.98;98706.13;5083869;28;20025;-66
2021/07/13 05:40:24;;;;;;;11.32;8.90;;;;;;;17.21;96.78;98821.31;5083720;28;20320;-66
2021/07/13 05:42:49;;;;;;;12.02;8.05;;;;;;;17.21;96.67;98736.19;5083699;28;20024;-66
2021/07/13 05:45:15;;;;;;;11.45;7.95;;;;;;;17.24;96.71;98746.69;5083763;28;20067;-66
2021/07/13 05:47:41;;;;;;;11.50;7.75;;;;;;;17.29;96.94;98735.84;5083744;28;20031;-66
2021/07/13 05:50:09;;;;;;;12.07;8.60;;;;;;;17.30;97.07;98718.09;5083954;28;20063;-66
2021/07/13 05:52:34;;;;;;;13.27;8.55;;;;;;;17.32;97.00;98726.84;5083551;28;20090;-66
2021/07/13 05:55:00;;;;;;;10.05;7.95;;;;;;;17.34;96.95;98799.50;5083703;28;20024;-66
2021/07/13 05:57:26;;;;;;;10.15;8.15;;;;;;;17.36;96.84;98808.25;5083641;28;20118;-66
2021/07/13 05:59:52;;;;;;;8.25;7.30;;;;;;;17.39;96.64;98802.81;5083512;28;20091;-66
2021/07/13 06:02:18;;;;;;;12.80;9.57;;;;;;;17.41;96.67;98785.00;5083596;28;20024;-66
2021/07/13 06:04:43;;;;;;;10.25;7.35;;;;;;;17.45;96.81;98775.97;5083526;28;20082;-66
2021/07/13 06:07:09;;;;;;;14.88;8.48;;;;;;;17.44;96.65;98814.16;5083542;28;20027;-66
2021/07/13 06:09:34;;;;;;;11.38;7.68;;;;;;;17.41;96.39;98816.91;5083546;28;20247;-66
2021/07/13 06:11:59;;;;;;;10.13;7.43;;;;;;;17.46;96.41;98825.63;5083512;28;20020;-66
2021/07/13 06:14:25;;;;;;;10.98;7.00;;;;;;;17.47;96.38;98833.53;5085452;28;20028;-66
2021/07/13 06:16:51;;;;;;;9.27;7.65;;;;;;;17.45;96.60;98850.47;5087294;28;20320;-66
2021/07/13 06:19:17;;;;;;;10.27;7.43;;;;;;;17.42;96.80;98874.53;5087144;28;20041;-66
2021/07/13 06:21:43;;;;;;;9.13;7.78;;;;;;;17.46;96.76;98894.81;5087156;28;20024;-66
2021/07/13 06:24:09;;;;;;;9.43;6.68;;;;;;;17.45;96.83;98890.41;5087181;28;20406;-66
2021/07/13 06:26:34;;;;;;;7.63;6.80;;;;;;;17.46;96.89;98918.75;5087104;28;20028;-66
2021/07/13 06:29:00;;;;;;;14.52;6.32;;;;;;;17.51;96.58;98898.13;5087044;28;20066;-66
2021/07/13 06:31:25;;;;;;;10.05;6.13;;;;;;;17.52;96.47;98878.59;5086998;28;20216;-66
2021/07/13 06:33:51;;;;;;;7.22;5.18;;;;;;;17.53;96.52;98878.47;5086968;28;20052;-66
2021/07/13 06:36:17;;;;;;;9.40;5.75;;;;;;;17.55;96.30;98862.44;5086914;28;20365;-66
2021/07/13 06:38:42;;;;;;;8.95;4.90;;;;;;;17.49;96.28;98857.41;5086798;28;20028;-66
2021/07/13 06:41:08;;;;;;;8.43;5.03;;;;;;;17.52;96.48;98852.81;5086878;28;20024;-66
2021/07/13 06:43:33;;;;;;;9.35;5.53;;;;;;;17.57;96.64;98860.59;5086748;28;20036;-66
2021/07/13 06:45:59;;;;;;;8.05;4.72;;;;;;;17.58;96.59;98852.53;5086731;28;20083;-66
2021/07/13 06:48:25;;;;;;;8.60;4.90;;;;;;;17.55;96.67;98847.34;5086713;28;20066;-66
2021/07/13 06:50:51;;;;;;;6.68;4.93;;;;;;;17.63;96.67;98849.69;5086509;28;20062;-66
2021/07/13 06:53:17;;;;;;;6.07;4.72;;;;;;;17.60;96.64;98856.03;5086591;28;20247;-66
2021/07/13 06:55:43;;;;;;;10.10;4.38;;;;;;;17.60;96.67;98842.72;5086585;28;20047;-66
2021/07/13 06:58:08;;;;;;;5.25;3.40;;;;;;;17.65;96.28;98853.16;5086442;28;20020;-66
2021/07/13 07:00:34;;;;;;;4.25;3.83;;;;;;;17.62;96.24;98832.00;5086502;28;20020;-66
2021/07/13 07:02:59;;;;;;;5.57;3.50;;;;;;;17.62;96.31;98837.31;5086447;28;20020;-66
2021/07/13 07:05:25;;;;;;;4.70;2.72;;;;;;;17.60;96.53;98836.50;5086428;28;20105;-66
2021/07/13 07:07:50;;;;;;;5.60;3.10;;;;;;;17.66;96.38;98833.56;5086351;28;20024;-66
2021/07/13 07:10:17;;;;;;;4.30;2.53;;;;;;;17.63;95.93;98839.03;5086319;28;20242;-66
2021/07/13 07:12:43;;;;;;;4.15;2.47;;;;;;;17.68;95.83;98842.38;5086318;28;20020;-66
2021/07/13 07:15:08;;;;;;;4.60;2.70;;;;;;;17.61;95.93;98835.56;5086261;28;20222;-66
2021/07/13 07:17:52;;;;;;;3.53;2.80;;;;;;;17.56;96.08;98826.94;5086231;28;20083;-66
2021/07/13 07:20:19;;;;;;;2.65;2.33;;;;;;;17.58;96.10;98819.72;5086093;28;20024;-66
2021/07/13 07:22:46;;;;;;;4.25;2.05;;;;;;;17.57;95.96;98812.69;5086142;28;20127;-66
2021/07/13 07:25:12;;;;;;;6.63;2.55;;;;;;;17.55;95.81;98817.19;5086028;28;20024;-66
2021/07/13 07:27:38;;;;;;;4.35;2.65;;;;;;;17.50;96.08;98812.13;5086025;28;20086;-66
2021/07/13 07:30:09;;;;;;;3.90;2.25;;;;;;;17.49;96.03;98810.38;5085977;28;20043;-66
2021/07/13 07:32:36;;;;;;;2.50;2.30;;;;;;;17.48;96.46;98813.09;5085987;28;20085;-66
2021/07/13 07:35:03;;;;;;;5.80;2.10;;;;;;;17.47;96.47;98872.56;5085887;28;20254;-66
2021/07/13 07:37:28;;;;;;;3.92;2.08;;;;;;;17.45;96.08;98813.22;5085808;28;20044;-66
2021/07/13 07:39:54;;;;;;;2.83;2.20;;;;;;;17.46;96.55;98820.28;5085711;28;20335;-66
2021/07/13 07:42:19;;;;;;;2.15;1.95;;;;;;;17.49;96.28;98814.84;5085642;28;20131;-66
2021/07/13 07:44:45;;;;;;;3.70;1.50;;;;;;;17.55;96.13;98830.50;5085673;28;20028;-66
2021/07/13 07:47:10;;;;;;;1.20;1.10;;;;;;;17.52;95.70;98815.56;5085624;28;20028;-66
2021/07/13 07:49:36;;;;;;;2.30;0.90;;;;;;;17.34;95.91;98951.16;5085581;28;20012;-66
2021/07/13 07:52:01;;;;;;;0.82;0.73;;;;;;;17.27;95.68;98819.34;5085375;28;20045;-66
2021/07/13 07:54:27;;;;;;;3.30;0.52;;;;;;;17.21;95.12;98816.00;5085456;28;20035;-66
2021/07/13 07:56:53;;;;;;;3.20;0.50;;;;;;;17.17;95.12;98810.88;5085430;28;20039;-66
2021/07/13 07:59:20;;;;;;;3.13;0.50;;;;;;;17.13;95.11;98857.16;5084146;28;20024;-66
2021/07/13 08:01:47;;;;;;;0.52;0.38;;;;;;;17.14;94.82;98848.22;5085259;28;20021;-66
2021/07/13 08:04:12;;;;;;;3.13;0.52;;;;;;;17.03;94.55;98848.66;5085304;28;20277;-66
2021/07/13 08:06:37;;;;;;;3.22;0.47;;;;;;;16.98;94.50;98834.72;5085200;28;20028;-66
2021/07/13 08:09:03;;;;;;;3.75;0.50;;;;;;;16.99;93.69;98839.09;5085191;28;20020;-66
2021/07/13 08:11:30;;;;;;;3.03;0.65;;;;;;;16.84;94.15;98821.13;5085112;28;20247;-66
2021/07/13 08:14:00;;;;;;;1.35;0.80;;;;;;;16.73;94.20;98812.72;5085064;28;20038;-66
2021/07/13 08:16:28;;;;;;;0.70;0.57;;;;;;;16.66;94.66;98827.22;5085028;28;20045;-66
2021/07/13 08:18:54;;;;;;;0.80;0.60;;;;;;;16.61;94.40;98809.72;5085190;28;20024;-66
2021/07/13 08:21:22;;;;;;;1.02;0.65;;;;;;;16.63;94.36;98811.38;5084895;28;20108;-66
2021/07/13 08:23:47;;;;;;;1.65;0.88;;;;;;;16.55;94.53;98810.81;5084864;28;20017;-66
2021/07/13 08:26:13;;;;;;;0.82;0.82;;;;;;;16.53;94.84;98804.72;5084825;28;20026;-66
2021/07/13 08:28:39;;;;;;;1.80;0.90;;;;;;;16.52;95.28;98796.81;5084821;28;20013;-66
2021/07/13 08:31:04;;;;;;;0.82;0.82;;;;;;;16.56;95.24;98793.97;5084766;28;20020;-66
2021/07/13 08:33:30;;;;;;;0.60;0.60;;;;;;;16.66;94.97;98805.94;5084727;28;20316;-66
2021/07/13 08:35:55;;;;;;;3.22;0.80;;;;;;;16.60;95.18;98811.50;5084479;28;20024;-66
2021/07/13 08:38:21;;;;;;;3.72;0.80;;;;;;;16.57;95.15;98795.69;5084251;28;20066;-66
2021/07/13 08:40:47;;;;;;;1.88;0.90;;;;;;;16.60;94.58;98795.56;5084566;28;20020;-66
2021/07/13 08:43:13;;;;;;;1.77;0.73;;;;;;;16.58;94.58;98797.41;5084472;28;20331;-66
2021/07/13 08:45:38;;;;;;;1.23;0.63;;;;;;;16.50;94.73;98783.59;5084511;28;20027;-66
2021/07/13 08:48:04;;;;;;;0.90;0.90;;;;;;;16.49;94.26;98776.50;5084443;28;20264;-66
2021/07/13 08:50:30;;;;;;;2.25;1.00;;;;;;;16.56;94.63;98778.03;5084405;28;20215;-66
2021/07/13 08:52:56;;;;;;;1.20;1.10;;;;;;;16.55;94.49;98775.44;5084236;28;20044;-66
2021/07/13 08:55:22;;;;;;;2.08;1.00;;;;;;;16.59;93.62;98795.63;5084312;28;20020;-66
2021/07/13 08:57:48;;;;;;;4.32;1.00;;;;;;;16.49;94.07;98784.47;5084273;28;20027;-66
2021/07/13 09:00:17;;;;;;;1.75;1.08;;;;;;;16.38;93.92;98784.03;5084160;28;20316;-66
2021/07/13 09:03:11;;;;;;;1.15;0.90;;;;;;;16.39;94.41;98780.44;5084219;28;20039;-66
2021/07/13 09:06:04;;;;;;;4.32;1.35;;;;;;;16.33;94.55;98786.00;5084233;28;20016;-66
2021/07/13 09:08:35;;;;;;;;;;;;;;;16.33;94.33;98825.84;5084623;28;20032;-66
2021/07/13 09:11:07;;;;;;;2.28;0.80;;;;;;;16.29;94.22;98783.53;5084213;28;19912;-66
2021/07/13 09:13:38;;;;;;;0.73;0.73;;;;;;;16.25;94.50;98963.41;5084196;28;20126;-66
2021/07/13 09:16:06;;;;;;;1.00;0.70;;;;;;;16.29;94.29;98895.97;5084096;28;20248;-66
2021/07/13 09:18:38;;;;;;;3.60;1.00;;;;;;;16.24;93.82;98879.34;5083992;28;20375;-66
2021/07/13 09:21:16;;;;;;;2.15;1.20;;;;;;;16.34;94.26;98864.78;5084120;28;20212;-66
2021/07/13 09:24:06;;;;;;;1.30;1.15;;;;;;;16.34;94.88;98840.88;5084055;28;20028;-66
2021/07/13 09:26:51;;;;;;;1.77;1.40;;;;;;;16.40;94.92;98840.63;5080621;28;20346;-66
2021/07/13 09:29:51;;;;;;;2.63;1.17;;;;;;;16.34;94.70;98837.34;5083968;28;20021;-66
2021/07/13 09:32:30;;;;;;;3.58;1.40;;;;;;;16.40;94.48;98814.06;5072425;28;20035;-66
2021/07/13 09:35:13;;;;;;;1.52;1.10;;;;;;;16.40;94.22;98807.88;5083939;28;20044;-66
2021/07/13 09:37:47;;;;;;;2.03;0.95;;;;;;;16.33;94.35;98796.63;5083884;28;20027;-66
2021/07/13 09:40:17;;;;;;;1.85;1.30;;;;;;;16.29;94.40;98795.03;5083850;28;20106;-66
2021/07/13 09:42:46;;;;;;;1.45;1.00;;;;;;;16.16;94.87;98788.47;5083795;28;20023;-66
2021/07/13 09:45:25;;;;;;;1.63;1.30;;;;;;;16.19;95.17;98793.66;5083797;28;20016;-66
2021/07/13 09:47:53;;;;;;;0.88;0.80;;;;;;;16.18;94.98;98781.31;5083793;28;20024;-66
2021/07/13 09:50:35;;;;;;;1.08;0.93;;;;;;;16.20;95.18;98790.06;5087319;28;20024;-66
2021/07/13 09:53:04;;;;;;;1.10;1.00;;;;;;;16.24;95.33;98797.00;5087665;28;20103;-66
2021/07/13 09:55:30;;;;;;;1.25;0.90;;;;;;;16.12;95.60;98781.56;5087751;28;20032;-66
2021/07/13 09:58:20;;;;;;;1.48;0.85;;;;;;;16.17;95.68;98789.34;5087710;28;20067;-66
2021/07/13 10:00:51;;;;;;;4.10;1.00;;;;;;;16.21;95.85;98794.47;5087686;28;20336;-66
2021/07/13 10:03:18;;;;;;;4.63;1.20;;;;;;;16.19;95.90;98800.75;5087684;28;20040;-66
2021/07/13 10:05:45;;;;;;;1.67;1.27;;;;;;;16.25;96.35;98780.13;5087533;28;20030;-66
2021/07/13 10:08:13;;;;;;;3.13;1.52;;;;;;;16.32;96.32;98789.59;5087540;28;20020;-66
2021/07/13 10:10:40;;;;;;;6.13;1.30;;;;;;;16.48;96.43;98796.06;5087435;28;20100;-66
2021/07/13 10:13:06;;;;;;;1.77;1.40;;;;;;;16.50;96.35;98802.19;5087483;28;20050;-66
2021/07/13 10:15:35;;;;;;;2.72;1.17;;;;;;;16.51;96.05;98795.06;5087337;28;20024;-66
2021/07/13 10:18:05;;;;;;;1.13;1.00;;;;;;;16.47;95.31;98789.00;5087307;28;20066;-66
2021/07/13 10:20:31;;;;;;;1.67;1.20;;;;;;;16.41;95.61;98794.53;5086007;28;20027;-66
2021/07/13 10:22:57;;;;;;;3.00;1.17;;;;;;;16.46;95.68;98794.41;5087237;28;20024;-66
2021/07/13 10:25:45;;;;;;;1.73;0.95;;;;;;;16.40;95.15;98819.38;5086082;28;20021;-66
2021/07/13 10:28:18;;;;;;;1.58;0.90;;;;;;;16.42;94.94;98812.19;5087169;28;20020;-66
2021/07/13 10:30:45;;;;;;;3.13;0.80;;;;;;;16.43;94.37;98787.41;5087099;28;20020;-66
2021/07/13 10:33:30;;;;;;;1.50;1.10;;;;;;;16.38;95.31;98794.66;5087036;28;20021;-66
2021/07/13 10:36:16;;;;;;;3.13;0.90;;;;;;;16.46;94.71;98807.69;5086974;28;20127;-66
2021/07/13 10:38:41;;;;;;;1.13;1.00;;;;;;;16.41;94.47;98799.84;5086745;28;20079;-66
2021/07/13 10:41:11;;;;;;;1.60;1.05;;;;;;;16.40;94.48;98798.13;5086881;28;20062;-66
2021/07/13 10:43:45;;;;;;;0.80;0.75;;;;;;;16.38;94.36;98805.28;5087075;28;20031;-66
2021/07/13 10:46:11;;;;;;;0.75;0.73;;;;;;;16.34;93.96;98798.38;5086877;28;20020;-66
2021/07/13 10:48:41;;;;;;;0.80;0.80;;;;;;;16.23;93.89;98802.38;5086869;28;20022;-66
2021/07/13 10:51:08;;;;;;;0.90;0.90;;;;;;;16.26;94.26;98805.75;5086543;28;20024;-66
2021/07/13 10:53:41;;;;;;;1.40;0.95;;;;;;;16.23;94.76;98805.03;5087018;28;20240;-66
2021/07/13 10:56:17;;;;;;;0.70;0.70;;;;;;;16.30;93.59;98806.53;5087005;28;20016;-66
2021/07/13 10:58:47;;;;;;;2.05;1.10;;;;;;;16.32;94.00;98810.84;5086552;28;20323;-66
2021/07/13 11:01:15;;;;;;;1.52;0.85;;;;;;;16.34;94.31;98809.00;5086128;28;20024;-66
2021/07/13 11:03:41;;;;;;;0.50;0.50;;;;;;;16.32;93.95;98810.84;5086508;28;20025;-66
2021/07/13 11:06:16;;;;;;;3.30;0.70;;;;;;;16.39;94.20;98801.69;5086451;28;20189;-66
2021/07/13 11:08:44;;;;;;;1.25;0.70;;;;;;;16.44;94.14;98805.09;5086428;28;20047;-66
2021/07/13 11:11:15;;;;;;;2.00;1.10;;;;;;;16.46;93.45;98803.22;5086386;28;20028;-66
2021/07/13 11:13:46;;;;;;;0.95;0.77;;;;;;;16.36;94.09;98791.19;5086346;28;20024;-66
2021/07/13 11:16:14;;;;;;;0.80;0.80;;;;;;;16.36;94.22;98804.47;5086340;28;20024;-66
2021/07/13 11:18:41;;;;;;;2.20;1.02;;;;;;;16.40;94.29;98806.09;5086127;28;20268;-66
2021/07/13 11:21:29;;;;;;;7.68;1.20;;;;;;;16.31;94.62;98797.63;5086221;28;20021;-66
2021/07/13 11:23:58;;;;;;;1.63;1.17;;;;;;;16.28;94.58;98793.31;5086078;28;20062;-66
2021/07/13 11:26:26;;;;;;;1.73;1.20;;;;;;;16.33;94.14;98860.38;5086341;28;20020;-66
2021/07/13 11:28:57;;;;;;;1.75;1.40;;;;;;;16.34;94.72;98819.63;5086019;28;20020;-66
2021/07/13 11:31:25;;;;;;;1.90;1.45;;;;;;;16.32;94.56;98826.78;5085991;28;20028;-66